createdAt,value
2019-04-27T00:02:05.670Z,8.61
2019-04-27T00:04:36.518Z,8.57
2019-04-27T00:07:05.105Z,8.53
2019-04-27T00:09:34.083Z,8.48
2019-04-27T00:12:03.491Z,8.44
2019-04-27T00:14:29.518Z,8.41
2019-04-27T00:17:15.147Z,8.37
2019-04-27T00:19:48.999Z,8.34
2019-04-27T00:22:34.639Z,8.29
2019-04-27T00:25:00.819Z,8.22
2019-04-27T00:27:26.795Z,8.15
2019-04-27T00:29:53.527Z,8.12
2019-04-27T00:32:19.652Z,8.09
2019-04-27T00:34:45.600Z,8.05
2019-04-27T00:37:13.679Z,8.02
2019-04-27T00:39:44.338Z,7.99
2019-04-27T00:42:10.265Z,7.96
2019-04-27T00:44:36.148Z,7.94
2019-04-27T00:47:03.609Z,7.90
2019-04-27T00:49:29.615Z,7.88
2019-04-27T00:51:55.494Z,7.86
2019-04-27T00:54:21.386Z,7.83
2019-04-27T00:56:52.938Z,7.81
2019-04-27T00:59:20.848Z,7.78
2019-04-27T01:02:04.998Z,7.77
2019-04-27T01:04:34.399Z,7.74
2019-04-27T01:07:00.275Z,7.69
2019-04-27T01:09:26.541Z,7.64
2019-04-27T01:11:53.448Z,7.61
2019-04-27T01:14:19.759Z,7.58
2019-04-27T01:16:45.716Z,7.51
2019-04-27T01:19:11.608Z,7.48
2019-04-27T01:21:37.469Z,7.44
2019-04-27T01:24:03.767Z,7.43
2019-04-27T01:26:31.517Z,7.43
2019-04-27T01:29:08.049Z,7.41
2019-04-27T01:31:34.117Z,7.39
2019-04-27T01:33:59.987Z,7.36
2019-04-27T01:36:26.154Z,7.35
2019-04-27T01:38:52.017Z,7.32
2019-04-27T01:41:19.237Z,7.33
2019-04-27T01:43:45.260Z,7.30
2019-04-27T01:46:11.242Z,7.30
2019-04-27T01:48:38.716Z,7.26
2019-04-27T01:51:04.851Z,7.15
2019-04-27T01:53:30.786Z,7.08
2019-04-27T01:55:56.676Z,7.05
2019-04-27T01:58:22.664Z,7.04
2019-04-27T02:01:02.097Z,7.04
2019-04-27T02:03:46.484Z,7.04
2019-04-27T02:06:12.458Z,6.99
2019-04-27T02:08:40.253Z,6.99
2019-04-27T02:11:06.207Z,6.97
2019-04-27T02:13:32.150Z,6.96
2019-04-27T02:15:58.835Z,6.93
2019-04-27T02:18:34.659Z,6.86
2019-04-27T02:20:52.459Z,6.89
2019-04-27T02:23:19.192Z,6.88
2019-04-27T02:25:45.200Z,6.85
2019-04-27T02:28:19.500Z,6.81
2019-04-27T02:30:49.943Z,6.79
2019-04-27T02:33:32.729Z,6.75
2019-04-27T02:36:00.363Z,6.69
2019-04-27T02:38:26.284Z,6.71
2019-04-27T02:40:54.044Z,6.68
2019-04-27T02:43:22.023Z,6.68
2019-04-27T02:45:50.129Z,6.67
2019-04-27T02:48:15.830Z,6.64
2019-04-27T02:50:42.543Z,6.58
2019-04-27T02:53:11.114Z,6.55
2019-04-27T02:55:36.029Z,6.51
2019-04-27T02:58:02.026Z,6.49
2019-04-27T03:00:28.816Z,6.48
2019-04-27T03:02:56.432Z,6.48
2019-04-27T03:05:23.221Z,6.45
2019-04-27T03:07:50.381Z,6.41
2019-04-27T03:10:16.349Z,6.41
2019-04-27T03:12:44.124Z,6.42
2019-04-27T03:15:12.318Z,6.43
2019-04-27T03:17:51.774Z,6.45
2019-04-27T03:20:22.195Z,6.45
2019-04-27T03:22:52.932Z,6.48
2019-04-27T03:25:23.352Z,6.50
2019-04-27T03:27:51.222Z,6.51
2019-04-27T03:30:22.497Z,6.51
2019-04-27T03:32:44.993Z,6.51
2019-04-27T03:35:12.879Z,6.51
2019-04-27T03:37:40.368Z,6.52
2019-04-27T03:40:06.600Z,6.53
2019-04-27T03:42:37.091Z,6.54
2019-04-27T03:45:00.944Z,6.50
2019-04-27T03:47:26.933Z,6.43
2019-04-27T03:49:53.196Z,6.39
2019-04-27T03:52:23.599Z,6.37
2019-04-27T03:54:59.708Z,6.39
2019-04-27T03:57:29.611Z,6.42
2019-04-27T03:59:59.650Z,6.47
2019-04-27T04:02:26.665Z,6.50
2019-04-27T04:04:52.647Z,6.55
2019-04-27T04:07:19.706Z,6.60
2019-04-27T04:09:45.673Z,6.63
2019-04-27T04:12:13.573Z,6.67
2019-04-27T04:14:42.537Z,6.66
2019-04-27T04:17:12.682Z,6.76
2019-04-27T04:19:48.871Z,6.80
2019-04-27T04:22:06.633Z,6.85
2019-04-27T04:24:32.664Z,6.90
2019-04-27T04:26:59.965Z,6.94
2019-04-27T04:29:26.002Z,6.99
2019-04-27T04:31:51.865Z,7.03
2019-04-27T04:34:19.742Z,7.06
2019-04-27T04:36:45.479Z,7.13
2019-04-27T04:39:12.541Z,7.17
2019-04-27T04:41:51.005Z,7.22
2019-04-27T04:44:21.648Z,7.26
2019-04-27T04:46:50.176Z,7.33
2019-04-27T04:49:16.285Z,7.37
2019-04-27T04:51:42.234Z,7.42
2019-04-27T04:54:09.520Z,7.47
2019-04-27T04:56:35.501Z,7.52
2019-04-27T04:59:01.468Z,7.58
2019-04-27T05:01:29.664Z,7.63
2019-04-27T05:03:55.077Z,7.70
2019-04-27T05:06:21.136Z,7.76
2019-04-27T05:08:47.200Z,7.83
2019-04-27T05:11:13.262Z,7.88
2019-04-27T05:13:39.403Z,7.84
2019-04-27T05:16:05.342Z,8.02
2019-04-27T05:18:31.196Z,8.09
2019-04-27T05:20:59.079Z,8.16
2019-04-27T05:23:25.306Z,8.23
2019-04-27T05:25:51.233Z,8.31
2019-04-27T05:28:18.755Z,8.38
2019-04-27T05:30:44.797Z,8.44
2019-04-27T05:33:10.773Z,8.48
2019-04-27T05:35:40.685Z,8.62
2019-04-27T05:38:07.482Z,8.70
2019-04-27T05:40:32.189Z,8.79
2019-04-27T05:42:58.573Z,8.87
2019-04-27T05:46:03.221Z,8.97
2019-04-27T05:48:30.979Z,9.05
2019-04-27T05:50:58.831Z,9.17
2019-04-27T05:53:24.535Z,9.26
2019-04-27T05:55:50.429Z,9.36
2019-04-27T05:58:16.381Z,9.48
2019-04-27T06:00:42.293Z,9.59
2019-04-27T06:03:09.102Z,9.73
2019-04-27T06:05:35.052Z,9.84
2019-04-27T06:08:01.011Z,9.96
2019-04-27T06:10:27.136Z,10.05
2019-04-27T06:12:52.992Z,10.16
2019-04-27T06:15:19.828Z,10.27
2019-04-27T06:17:45.849Z,10.41
2019-04-27T06:20:11.979Z,10.57
2019-04-27T06:22:39.005Z,10.73
2019-04-27T06:25:05.036Z,10.92
2019-04-27T06:27:31.119Z,11.11
2019-04-27T06:29:59.137Z,11.31
2019-04-27T06:32:24.756Z,11.47
2019-04-27T06:34:50.630Z,11.64
2019-04-27T06:37:16.527Z,11.82
2019-04-27T06:39:42.481Z,11.97
2019-04-27T06:42:16.672Z,12.10
2019-04-27T06:44:36.013Z,12.20
2019-04-27T06:47:01.991Z,12.37
2019-04-27T06:49:29.465Z,12.50
2019-04-27T06:51:55.447Z,12.61
2019-04-27T06:54:21.545Z,12.74
2019-04-27T06:56:48.775Z,12.86
2019-04-27T06:59:14.691Z,12.98
2019-04-27T07:01:40.526Z,13.09
2019-04-27T07:04:06.429Z,13.21
2019-04-27T07:06:32.411Z,13.31
2019-04-27T07:08:59.736Z,13.42
2019-04-27T07:11:25.980Z,13.51
2019-04-27T07:13:51.856Z,13.61
2019-04-27T07:16:19.471Z,13.70
2019-04-27T07:18:45.381Z,13.81
2019-04-27T07:21:18.791Z,13.92
2019-04-27T07:23:40.847Z,14.03
2019-04-27T07:26:06.757Z,14.13
2019-04-27T07:28:32.624Z,14.22
2019-04-27T07:30:58.745Z,14.32
2019-04-27T07:33:24.669Z,14.41
2019-04-27T07:35:50.543Z,14.51
2019-04-27T07:38:16.401Z,14.61
2019-04-27T07:40:42.431Z,14.70
2019-04-27T07:43:10.175Z,14.81
2019-04-27T07:45:39.544Z,14.91
2019-04-27T07:48:05.511Z,15.01
2019-04-27T07:50:31.381Z,15.13
2019-04-27T07:52:58.687Z,15.22
2019-04-27T07:55:24.657Z,15.31
2019-04-27T07:57:50.524Z,15.37
2019-04-27T08:00:16.733Z,15.46
2019-04-27T08:02:42.680Z,15.53
2019-04-27T08:05:09.376Z,15.59
2019-04-27T08:07:35.325Z,15.68
2019-04-27T08:10:01.909Z,15.74
2019-04-27T08:12:28.862Z,15.80
2019-04-27T08:14:54.816Z,15.84
2019-04-27T08:17:20.706Z,15.88
2019-04-27T08:19:46.560Z,15.94
2019-04-27T08:22:12.479Z,15.99
2019-04-27T08:24:39.598Z,16.04
2019-04-27T08:27:16.458Z,16.10
2019-04-27T08:30:02.319Z,16.16
2019-04-27T08:32:39.063Z,16.22
2019-04-27T08:35:05.426Z,16.28
2019-04-27T08:37:31.306Z,16.33
2019-04-27T08:39:57.140Z,16.39
2019-04-27T08:42:23.106Z,16.44
2019-04-27T08:44:49.696Z,16.50
2019-04-27T08:47:15.768Z,16.57
2019-04-27T08:49:41.651Z,16.62
2019-04-27T08:52:09.200Z,16.68
2019-04-27T08:54:35.181Z,16.74
2019-04-27T08:57:01.767Z,16.76
2019-04-27T08:59:29.547Z,16.79
2019-04-27T09:01:55.301Z,16.81
2019-04-27T09:04:21.228Z,16.82
2019-04-27T09:06:49.352Z,16.86
2019-04-27T09:09:35.394Z,16.89
2019-04-27T09:12:03.168Z,16.96
2019-04-27T09:14:34.050Z,17.00
2019-04-27T09:17:09.473Z,17.04
2019-04-27T09:19:39.247Z,17.10
2019-04-27T09:22:15.884Z,17.14
2019-04-27T09:24:36.859Z,17.15
2019-04-27T09:27:03.458Z,17.18
2019-04-27T09:29:29.876Z,17.19
2019-04-27T09:31:56.165Z,17.20
2019-04-27T09:34:22.125Z,17.34
2019-04-27T09:36:48.106Z,17.70
2019-04-27T09:39:16.084Z,18.05
2019-04-27T09:41:41.988Z,18.36
2019-04-27T09:44:08.228Z,18.64
2019-04-27T09:46:34.112Z,18.85
2019-04-27T09:49:00.084Z,19.01
2019-04-27T09:51:26.060Z,19.12
2019-04-27T09:53:51.932Z,19.28
2019-04-27T09:56:17.906Z,19.41
2019-04-27T09:58:43.880Z,19.48
2019-04-27T10:01:09.857Z,19.51
2019-04-27T10:03:36.165Z,19.54
2019-04-27T10:06:02.088Z,19.56
2019-04-27T10:08:27.950Z,19.57
2019-04-27T10:10:53.828Z,19.60
2019-04-27T10:13:19.699Z,19.63
2019-04-27T10:15:46.021Z,19.62
2019-04-27T10:18:11.949Z,19.65
2019-04-27T10:20:40.568Z,19.64
2019-04-27T10:23:06.230Z,19.69
2019-04-27T10:25:32.160Z,19.77
2019-04-27T10:27:58.029Z,19.92
2019-04-27T10:32:51.630Z,20.02
2019-04-27T10:35:17.498Z,20.00
2019-04-27T10:37:43.361Z,20.00
2019-04-27T10:40:09.225Z,20.02
2019-04-27T10:42:35.835Z,20.08
2019-04-27T10:45:02.127Z,20.13
2019-04-27T10:47:28.170Z,20.15
2019-04-27T10:49:54.044Z,20.20
2019-04-27T10:52:19.944Z,20.32
2019-04-27T10:54:45.819Z,20.36
2019-04-27T10:57:11.660Z,20.42
2019-04-27T10:59:37.576Z,20.51
2019-04-27T11:02:03.679Z,20.54
2019-04-27T11:04:40.192Z,20.52
2019-04-27T11:07:08.075Z,20.58
2019-04-27T11:09:34.138Z,20.69
2019-04-27T11:12:00.023Z,20.79
2019-04-27T11:14:26.258Z,20.90
2019-04-27T11:16:52.236Z,20.90
2019-04-27T11:19:18.141Z,20.87
2019-04-27T11:21:44.033Z,20.89
2019-04-27T11:24:10.016Z,20.92
2019-04-27T11:26:36.381Z,20.93
2019-04-27T11:29:02.388Z,20.98
2019-04-27T11:31:28.268Z,21.08
2019-04-27T11:33:56.492Z,21.16
2019-04-27T11:36:25.566Z,21.29
2019-04-27T11:38:53.590Z,21.38
2019-04-27T11:41:19.542Z,21.38
2019-04-27T11:43:46.458Z,21.41
2019-04-27T11:46:12.354Z,21.42
2019-04-27T11:48:38.361Z,21.51
2019-04-27T11:51:04.338Z,21.53
2019-04-27T11:53:30.204Z,21.56
2019-04-27T11:55:56.051Z,21.58
2019-04-27T11:58:21.968Z,21.62
2019-04-27T12:00:48.066Z,21.67
2019-04-27T12:03:14.070Z,21.72
2019-04-27T12:05:39.957Z,21.83
2019-04-27T12:08:06.271Z,21.86
2019-04-27T12:10:32.189Z,21.84
2019-04-27T12:12:58.065Z,21.78
2019-04-27T12:15:26.070Z,21.78
2019-04-27T12:17:51.860Z,21.73
2019-04-27T12:20:18.050Z,21.62
2019-04-27T12:22:44.103Z,21.61
2019-04-27T12:25:10.168Z,21.52
2019-04-27T12:27:37.943Z,21.40
2019-04-27T12:30:11.373Z,21.28
2019-04-27T12:32:37.249Z,21.16
2019-04-27T12:35:04.012Z,21.05
2019-04-27T12:37:29.882Z,20.96
2019-04-27T12:39:57.584Z,20.88
2019-04-27T12:42:23.647Z,20.75
2019-04-27T12:44:49.667Z,20.62
2019-04-27T12:47:16.363Z,20.46
2019-04-27T12:49:42.433Z,20.26
2019-04-27T12:52:08.390Z,20.07
2019-04-27T12:54:36.327Z,19.89
2019-04-27T12:57:05.861Z,19.79
2019-04-27T12:59:50.390Z,19.71
2019-04-27T13:02:17.537Z,19.61
2019-04-27T13:04:43.522Z,19.56
2019-04-27T13:07:09.377Z,19.56
2019-04-27T13:09:36.028Z,19.56
2019-04-27T13:12:01.997Z,19.60
2019-04-27T13:14:27.862Z,19.56
2019-04-27T13:16:53.893Z,19.48
2019-04-27T13:19:20.161Z,19.19
2019-04-27T13:21:46.923Z,19.29
2019-04-27T13:24:12.999Z,19.24
2019-04-27T13:26:38.943Z,19.18
2019-04-27T13:29:06.658Z,19.17
2019-04-27T13:31:32.700Z,19.22
2019-04-27T13:33:58.576Z,19.28
2019-04-27T13:36:26.467Z,19.22
2019-04-27T13:38:52.126Z,19.09
2019-04-27T13:41:28.249Z,19.01
2019-04-27T13:43:45.672Z,19.01
2019-04-27T13:46:25.992Z,19.02
2019-04-27T13:49:08.561Z,18.94
2019-04-27T13:51:51.054Z,18.92
2019-04-27T13:54:23.686Z,18.85
2019-04-27T13:56:47.407Z,18.78
2019-04-27T13:59:12.983Z,18.67
2019-04-27T14:01:40.280Z,18.61
2019-04-27T14:04:06.987Z,18.53
2019-04-27T14:06:33.135Z,18.50
2019-04-27T14:08:59.014Z,18.48
2019-04-27T14:11:24.894Z,18.47
2019-04-27T14:13:50.798Z,18.46
2019-04-27T14:16:16.644Z,18.40
2019-04-27T14:18:42.630Z,18.30
2019-04-27T14:21:09.424Z,18.24
2019-04-27T14:23:35.331Z,18.18
2019-04-27T14:26:01.225Z,18.11
2019-04-27T14:28:28.896Z,18.05
2019-04-27T14:30:54.987Z,17.98
2019-04-27T14:33:20.943Z,17.86
2019-04-27T14:35:48.022Z,17.74
2019-04-27T14:38:14.602Z,17.65
2019-04-27T14:40:40.465Z,17.49
2019-04-27T14:43:06.341Z,17.36
2019-04-27T14:45:32.311Z,17.22
2019-04-27T14:47:58.299Z,17.05
2019-04-27T14:50:24.270Z,16.90
2019-04-27T14:52:50.117Z,16.79
2019-04-27T14:55:15.978Z,16.68
2019-04-27T14:57:41.936Z,16.62
2019-04-27T15:00:10.273Z,16.61
2019-04-27T15:02:36.183Z,16.57
2019-04-27T15:05:02.767Z,16.57
2019-04-27T15:07:28.658Z,16.52
2019-04-27T15:12:30.759Z,16.46
2019-04-27T15:14:59.079Z,16.47
2019-04-27T15:17:26.725Z,16.43
2019-04-27T15:19:54.675Z,16.42
2019-04-27T15:22:23.119Z,16.30
2019-04-27T15:25:06.423Z,16.26
2019-04-27T15:27:20.482Z,16.16
2019-04-27T15:29:46.576Z,16.09
2019-04-27T15:34:58.781Z,15.88
2019-04-27T15:37:34.214Z,15.81
2019-04-27T15:40:10.138Z,15.78
2019-04-27T15:42:41.663Z,15.81
2019-04-27T15:45:05.819Z,15.79
2019-04-27T15:47:34.011Z,15.80
2019-04-27T15:49:59.971Z,15.74
2019-04-27T15:52:30.158Z,15.66
2019-04-27T15:54:53.727Z,15.56
2019-04-27T15:57:20.830Z,15.43
2019-04-27T15:59:48.248Z,15.36
2019-04-27T16:02:15.623Z,15.36
2019-04-27T16:04:44.415Z,15.37
2019-04-27T16:07:09.776Z,15.33
2019-04-27T16:09:35.894Z,15.24
2019-04-27T16:12:09.989Z,15.14
2019-04-27T16:14:29.503Z,15.10
2019-04-27T16:16:55.333Z,15.06
2019-04-27T16:19:21.315Z,15.01
2019-04-27T16:21:53.770Z,14.94
2019-04-27T16:24:17.026Z,14.84
2019-04-27T16:26:46.359Z,14.73
2019-04-27T16:29:10.320Z,14.67
2019-04-27T16:31:38.447Z,14.61
2019-04-27T16:34:03.945Z,14.55
2019-04-27T16:36:29.963Z,14.49
2019-04-27T16:38:57.811Z,14.48
2019-04-27T16:41:24.024Z,14.42
2019-04-27T16:43:50.105Z,14.38
2019-04-27T16:46:16.053Z,14.34
2019-04-27T16:48:42.054Z,14.32
2019-04-27T16:51:08.695Z,14.27
2019-04-27T16:53:38.198Z,14.18
2019-04-27T16:56:10.878Z,14.09
2019-04-27T16:58:36.984Z,13.98
2019-04-27T17:01:08.413Z,13.85
2019-04-27T17:03:35.775Z,13.72
2019-04-27T17:06:04.047Z,13.64
2019-04-27T17:08:29.128Z,13.53
2019-04-27T17:10:59.263Z,13.45
2019-04-27T17:13:24.884Z,13.40
2019-04-27T17:15:55.326Z,13.37
2019-04-27T17:18:32.225Z,13.28
2019-04-27T17:21:02.682Z,13.19
2019-04-27T17:23:26.348Z,13.12
2019-04-27T17:25:57.170Z,13.01
2019-04-27T17:28:21.861Z,12.88
2019-04-27T17:30:47.720Z,12.77
2019-04-27T17:33:30.435Z,12.69
2019-04-27T17:35:57.643Z,12.65
2019-04-27T17:38:24.465Z,12.58
2019-04-27T17:40:51.862Z,12.52
2019-04-27T17:43:18.831Z,12.42
2019-04-27T17:45:44.804Z,12.34
2019-04-27T17:48:10.986Z,12.28
2019-04-27T17:50:38.728Z,12.24
2019-04-27T17:53:04.746Z,12.17
2019-04-27T17:55:30.593Z,12.11
2019-04-27T17:57:58.923Z,12.06
2019-04-27T18:00:24.343Z,12.06
2019-04-27T18:02:50.296Z,12.06
2019-04-27T18:05:17.878Z,12.09
2019-04-27T18:07:44.320Z,12.04
2019-04-27T18:10:13.435Z,11.98
2019-04-27T18:12:38.349Z,11.75
2019-04-27T18:15:04.433Z,11.84
2019-04-27T18:17:31.084Z,11.79
2019-04-27T18:20:08.407Z,11.74
2019-04-27T18:22:39.786Z,11.65
2019-04-27T18:25:09.616Z,11.59
2019-04-27T18:27:45.715Z,11.57
2019-04-27T18:30:15.128Z,11.54
2019-04-27T18:32:41.156Z,11.50
2019-04-27T18:35:08.100Z,11.47
2019-04-27T18:37:34.058Z,11.41
2019-04-27T18:40:00.001Z,11.38
2019-04-27T18:42:28.016Z,11.37
2019-04-27T18:44:53.783Z,11.34
2019-04-27T18:47:19.642Z,11.32
2019-04-27T18:50:07.504Z,11.30
2019-04-27T18:52:47.529Z,11.25
2019-04-27T18:55:15.595Z,11.18
2019-04-27T18:57:39.005Z,11.13
2019-04-27T19:00:05.725Z,11.08
2019-04-27T19:02:31.635Z,11.02
2019-04-27T19:06:10.279Z,10.96
2019-04-27T19:08:36.263Z,10.83
2019-04-27T19:11:04.845Z,10.78
2019-04-27T19:13:29.888Z,10.74
2019-04-27T19:15:57.881Z,10.70
2019-04-27T19:18:24.872Z,10.63
2019-04-27T19:20:50.845Z,10.48
2019-04-27T19:23:16.816Z,10.41
2019-04-27T19:25:48.247Z,10.29
2019-04-27T19:28:25.103Z,10.19
2019-04-27T19:30:59.477Z,10.14
2019-04-27T19:33:25.460Z,10.10
2019-04-27T19:35:51.356Z,10.01
2019-04-27T19:38:18.621Z,10.00
2019-04-27T19:40:44.577Z,10.00
2019-04-27T19:43:10.730Z,9.96
2019-04-27T19:45:36.619Z,9.87
2019-04-27T19:48:02.607Z,9.85
2019-04-27T19:50:28.638Z,9.84
2019-04-27T19:52:54.646Z,9.81
2019-04-27T19:55:20.551Z,9.78
2019-04-27T19:57:46.560Z,9.74
2019-04-27T20:00:19.293Z,9.74
2019-04-27T20:02:45.288Z,9.73
2019-04-27T20:05:11.597Z,9.67
2019-04-27T20:07:38.059Z,9.59
2019-04-27T20:10:05.447Z,9.50
2019-04-27T20:12:31.530Z,9.45
2019-04-27T20:14:57.497Z,9.43
2019-04-27T20:17:24.043Z,9.38
2019-04-27T20:19:51.571Z,9.30
2019-04-27T20:22:17.666Z,9.23
2019-04-27T20:24:43.672Z,9.19
2019-04-27T20:27:10.917Z,9.11
2019-04-27T20:29:36.971Z,9.06
2019-04-27T20:32:03.025Z,9.05
2019-04-27T20:34:28.883Z,9.02
2019-04-27T20:36:54.776Z,9.00
2019-04-27T20:39:20.642Z,8.98
2019-04-27T20:41:46.629Z,8.97
2019-04-27T20:44:12.840Z,8.99
2019-04-27T20:46:38.811Z,9.00
2019-04-27T20:49:06.683Z,8.99
2019-04-27T20:51:51.063Z,9.00
2019-04-27T20:54:17.728Z,9.01
2019-04-27T20:56:43.616Z,8.93
2019-04-27T20:59:10.810Z,8.90
2019-04-27T21:01:36.818Z,8.84
2019-04-27T21:04:03.270Z,8.77
2019-04-27T21:06:37.062Z,8.71
2019-04-27T21:09:06.734Z,8.65
2019-04-27T21:11:41.420Z,8.63
2019-04-27T21:14:07.254Z,8.63
2019-04-27T21:16:33.146Z,8.62
2019-04-27T21:18:59.026Z,8.62
2019-04-27T21:21:24.868Z,8.57
2019-04-27T21:23:51.514Z,8.55
2019-04-27T21:26:17.426Z,8.54
2019-04-27T21:28:43.467Z,8.51
2019-04-27T21:31:12.485Z,8.47
